createdAt,value
2022-09-17T00:01:49.080Z,9.80
2022-09-17T00:04:31.519Z,9.79
2022-09-17T00:07:13.312Z,9.79
2022-09-17T00:09:55.106Z,9.77
2022-09-17T00:12:36.899Z,9.77
2022-09-17T00:15:18.794Z,9.76
2022-09-17T00:18:00.634Z,9.76
2022-09-17T00:20:45.455Z,9.78
2022-09-17T00:23:27.349Z,9.79
2022-09-17T00:26:09.142Z,9.82
2022-09-17T00:28:55.748Z,9.84
2022-09-17T00:31:37.708Z,9.86
2022-09-17T00:34:19.642Z,9.88
2022-09-17T00:37:01.434Z,9.88
2022-09-17T00:39:43.228Z,9.87
2022-09-17T00:42:25.124Z,9.87
2022-09-17T00:45:07.941Z,9.86
2022-09-17T00:47:59.258Z,9.85
2022-09-17T00:50:43.753Z,9.85
2022-09-17T00:53:25.816Z,9.86
2022-09-17T00:56:19.489Z,9.87
2022-09-17T00:59:03.715Z,9.89
2022-09-17T01:01:46.615Z,9.91
2022-09-17T01:04:28.553Z,9.93
2022-09-17T01:07:30.621Z,9.96
2022-09-17T01:10:36.376Z,9.98
2022-09-17T01:13:33.426Z,10.02
2022-09-17T01:16:42.561Z,10.04
2022-09-17T01:19:36.337Z,10.06
2022-09-17T01:22:27.037Z,10.08
2022-09-17T01:25:28.599Z,10.10
2022-09-17T01:28:33.737Z,10.10
2022-09-17T01:31:36.253Z,10.07
2022-09-17T01:34:32.035Z,10.04
2022-09-17T01:37:30.823Z,10.02
2022-09-17T01:40:24.677Z,10.03
2022-09-17T01:43:25.443Z,10.02
2022-09-17T01:46:18.332Z,10.03
2022-09-17T01:49:05.412Z,10.05
2022-09-17T01:51:49.765Z,10.07
2022-09-17T01:54:42.362Z,10.06
2022-09-17T01:57:40.897Z,10.05
2022-09-17T02:00:23.927Z,10.04
2022-09-17T02:03:17.365Z,10.02
2022-09-17T02:06:06.033Z,10.02
2022-09-17T02:09:04.730Z,10.02
2022-09-17T02:11:52.342Z,10.03
2022-09-17T02:14:40.389Z,10.04
2022-09-17T02:17:32.093Z,10.05
2022-09-17T02:20:17.662Z,10.05
2022-09-17T02:23:08.772Z,10.05
2022-09-17T02:25:57.475Z,10.06
2022-09-17T02:28:51.555Z,10.06
2022-09-17T02:31:33.590Z,10.05
2022-09-17T02:34:15.837Z,10.03
2022-09-17T02:37:01.207Z,10.01
2022-09-17T02:39:43.562Z,9.99
2022-09-17T02:43:04.041Z,9.97
2022-09-17T02:46:41.266Z,9.96
2022-09-17T02:50:01.734Z,9.93
2022-09-17T02:53:08.309Z,9.90
2022-09-17T02:56:13.853Z,9.87
2022-09-17T02:59:04.663Z,9.86
2022-09-17T03:02:01.463Z,9.84
2022-09-17T03:04:47.055Z,9.83
2022-09-17T03:07:29.402Z,9.81
2022-09-17T03:10:11.395Z,9.79
2022-09-17T03:12:54.007Z,9.79
2022-09-17T03:15:35.903Z,9.79
2022-09-17T03:18:17.697Z,9.78
2022-09-17T03:20:59.797Z,9.79
2022-09-17T03:23:41.795Z,9.79
2022-09-17T03:26:23.592Z,9.81
2022-09-17T03:29:05.793Z,9.81
2022-09-17T03:31:48.813Z,9.81
2022-09-17T03:34:30.607Z,9.81
2022-09-17T03:37:12.605Z,9.83
2022-09-17T03:39:54.467Z,9.83
2022-09-17T03:42:36.294Z,9.83
2022-09-17T03:45:18.498Z,9.85
2022-09-17T03:48:00.597Z,9.85
2022-09-17T03:50:43.619Z,9.87
2022-09-17T03:53:25.413Z,9.88
2022-09-17T03:56:07.617Z,9.89
2022-09-17T03:58:49.409Z,9.92
2022-09-17T04:01:31.257Z,9.93
2022-09-17T04:04:13.074Z,9.94
2022-09-17T04:06:55.168Z,9.96
2022-09-17T04:09:36.991Z,9.96
2022-09-17T04:12:20.526Z,9.96
2022-09-17T04:15:02.833Z,9.97
2022-09-17T04:17:44.932Z,9.98
2022-09-17T04:20:26.929Z,9.98
2022-09-17T04:23:11.080Z,9.98
2022-09-17T04:25:52.973Z,10.00
2022-09-17T04:28:34.767Z,10.03
2022-09-17T04:31:16.613Z,10.04
2022-09-17T04:33:58.792Z,10.06
2022-09-17T04:36:42.093Z,10.07
2022-09-17T04:39:23.886Z,10.09
2022-09-17T04:42:05.679Z,10.09
2022-09-17T04:44:47.655Z,10.10
2022-09-17T04:47:29.470Z,10.12
2022-09-17T04:50:11.366Z,10.13
2022-09-17T04:52:53.158Z,10.12
2022-09-17T04:55:35.363Z,10.12
2022-09-17T04:58:17.361Z,10.13
2022-09-17T05:00:59.527Z,10.14
2022-09-17T05:03:41.459Z,10.16
2022-09-17T05:06:23.252Z,10.17
2022-09-17T05:09:05.051Z,10.18
2022-09-17T05:11:46.941Z,10.20
2022-09-17T05:14:28.734Z,10.22
2022-09-17T05:17:11.040Z,10.25
2022-09-17T05:19:53.651Z,10.27
2022-09-17T05:22:35.958Z,10.28
2022-09-17T05:25:19.972Z,10.31
2022-09-17T05:28:03.231Z,10.32
2022-09-17T05:30:45.125Z,10.34
2022-09-17T05:33:26.920Z,10.38
2022-09-17T05:36:08.735Z,10.43
2022-09-17T05:38:50.608Z,10.46
2022-09-17T05:41:32.402Z,10.50
2022-09-17T05:44:17.977Z,10.53
2022-09-17T05:47:00.345Z,10.56
2022-09-17T05:49:42.389Z,10.59
2022-09-17T05:52:28.386Z,10.62
2022-09-17T05:55:10.276Z,10.63
2022-09-17T05:57:52.072Z,10.66
2022-09-17T06:00:33.862Z,10.73
2022-09-17T06:03:18.210Z,10.81
2022-09-17T06:06:00.933Z,10.86
2022-09-17T06:08:43.034Z,10.87
2022-09-17T06:11:24.828Z,10.84
2022-09-17T06:14:06.619Z,10.81
2022-09-17T06:16:48.554Z,10.79
2022-09-17T06:19:30.957Z,10.78
2022-09-17T06:22:12.920Z,10.80
2022-09-17T06:24:54.713Z,10.83
2022-09-17T06:27:36.813Z,10.86
2022-09-17T06:30:19.221Z,10.90
2022-09-17T06:33:01.530Z,10.93
2022-09-17T06:35:43.729Z,10.97
2022-09-17T06:38:25.625Z,11.11
2022-09-17T06:41:07.522Z,11.23
2022-09-17T06:43:53.513Z,11.29
2022-09-17T06:46:35.352Z,11.32
2022-09-17T06:49:18.226Z,11.32
2022-09-17T06:52:00.020Z,11.30
2022-09-17T06:54:41.815Z,11.26
2022-09-17T06:57:23.708Z,11.24
2022-09-17T07:00:06.083Z,11.23
2022-09-17T07:03:01.426Z,11.23
2022-09-17T07:05:45.266Z,11.23
2022-09-17T07:08:27.265Z,11.25
2022-09-17T07:11:09.165Z,11.25
2022-09-17T07:13:51.129Z,11.24
2022-09-17T07:16:35.277Z,11.24
2022-09-17T07:19:17.408Z,11.27
2022-09-17T07:21:59.508Z,11.29
2022-09-17T07:24:41.711Z,11.35
2022-09-17T07:27:24.133Z,11.42
2022-09-17T07:30:07.961Z,11.47
2022-09-17T07:32:50.474Z,11.52
2022-09-17T07:35:32.532Z,11.57
2022-09-17T07:41:42.548Z,11.60
2022-09-17T07:44:25.670Z,11.62
2022-09-17T07:47:07.771Z,11.68
2022-09-17T07:49:49.987Z,11.77
2022-09-17T07:52:31.868Z,11.85
2022-09-17T07:55:14.278Z,11.90
2022-09-17T07:57:56.069Z,11.94
2022-09-17T08:00:37.863Z,11.97
2022-09-17T08:03:19.655Z,12.03
2022-09-17T08:06:06.056Z,12.07
2022-09-17T08:08:48.591Z,12.11
2022-09-17T08:11:54.660Z,12.15
2022-09-17T08:14:33.657Z,12.16
2022-09-17T08:17:16.073Z,12.15
2022-09-17T08:19:57.860Z,12.15
2022-09-17T08:22:40.165Z,12.19
2022-09-17T08:25:21.957Z,12.21
2022-09-17T08:28:03.751Z,12.25
2022-09-17T08:30:46.663Z,12.28
2022-09-17T08:33:32.362Z,12.31
2022-09-17T08:36:16.709Z,12.42
2022-09-17T08:38:58.911Z,12.54
2022-09-17T08:41:43.701Z,12.64
2022-09-17T08:44:30.870Z,12.70
2022-09-17T08:47:25.639Z,12.71
2022-09-17T08:50:15.576Z,12.73
2022-09-17T08:53:19.179Z,12.75
2022-09-17T08:56:13.569Z,12.78
2022-09-17T08:59:21.891Z,12.80
2022-09-17T09:02:15.012Z,12.85
2022-09-17T09:05:02.738Z,12.92
2022-09-17T09:07:50.480Z,13.01
2022-09-17T09:10:51.351Z,13.15
2022-09-17T09:13:42.269Z,13.28
2022-09-17T09:16:27.786Z,13.34
2022-09-17T09:19:27.243Z,13.43
2022-09-17T09:22:35.662Z,13.62
2022-09-17T09:25:37.218Z,13.79
2022-09-17T09:28:39.656Z,13.99
2022-09-17T09:31:48.089Z,14.38
2022-09-17T09:34:34.043Z,14.98
2022-09-17T09:37:33.511Z,15.54
2022-09-17T09:57:10.712Z,16.51
2022-09-17T10:00:23.737Z,16.42
2022-09-17T10:03:22.631Z,16.66
2022-09-17T10:06:07.745Z,16.69
2022-09-17T10:08:52.185Z,16.64
2022-09-17T10:11:33.982Z,16.91
2022-09-17T10:14:28.219Z,17.20
2022-09-17T10:17:26.935Z,17.41
2022-09-17T10:20:20.577Z,17.80
2022-09-17T10:23:06.692Z,18.17
2022-09-17T10:25:50.330Z,18.49
2022-09-17T10:28:39.699Z,18.81
2022-09-17T10:31:24.488Z,18.95
2022-09-17T10:34:27.612Z,19.06
2022-09-17T10:37:52.472Z,19.17
2022-09-17T10:40:38.013Z,19.06
2022-09-17T10:43:27.399Z,19.13
2022-09-17T10:46:15.475Z,19.38
2022-09-17T10:49:28.690Z,19.48
2022-09-17T10:52:38.262Z,19.21
2022-09-17T10:55:52.498Z,18.87
2022-09-17T10:58:51.312Z,18.56
2022-09-17T11:02:00.179Z,18.29
2022-09-17T11:05:01.059Z,18.00
2022-09-17T11:07:59.526Z,17.75
2022-09-17T11:11:09.827Z,17.52
2022-09-17T11:13:59.916Z,17.37
2022-09-17T11:17:08.247Z,17.19
2022-09-17T11:20:06.845Z,17.02
2022-09-17T11:23:17.629Z,17.14
2022-09-17T11:26:28.752Z,17.41
2022-09-17T11:29:41.143Z,17.72
2022-09-17T11:32:48.986Z,18.07
2022-09-17T11:35:45.178Z,18.36
2022-09-17T11:38:47.863Z,18.53
2022-09-17T11:41:42.004Z,18.56
2022-09-17T11:44:50.364Z,18.52
2022-09-17T11:47:40.198Z,18.57
2022-09-17T11:50:44.666Z,18.62
2022-09-17T11:53:36.505Z,18.64
2022-09-17T11:56:25.789Z,18.63
2022-09-17T11:59:21.129Z,18.63
2022-09-17T12:02:09.524Z,18.62
2022-09-17T12:05:03.659Z,18.63
2022-09-17T12:07:57.995Z,18.62
2022-09-17T12:11:03.134Z,18.57
2022-09-17T12:13:52.946Z,18.45
2022-09-17T12:16:43.865Z,18.45
2022-09-17T12:19:44.149Z,18.35
2022-09-17T12:22:39.547Z,18.13
2022-09-17T12:25:22.663Z,18.08
2022-09-17T12:28:21.989Z,18.13
2022-09-17T12:31:43.552Z,18.25
2022-09-17T12:34:47.836Z,18.16
2022-09-17T12:38:08.646Z,18.12
2022-09-17T12:41:12.760Z,18.11
2022-09-17T12:44:17.595Z,18.18
2022-09-17T12:47:18.129Z,18.24
2022-09-17T12:50:20.090Z,18.25
2022-09-17T12:53:08.624Z,18.09
2022-09-17T12:56:02.362Z,17.87
2022-09-17T12:59:03.262Z,17.72
2022-09-17T13:01:53.513Z,17.67
2022-09-17T13:05:00.097Z,17.68
2022-09-17T13:08:02.404Z,17.71
2022-09-17T13:16:14.313Z,17.57
2022-09-17T13:23:31.070Z,17.21
2022-09-17T13:26:52.719Z,17.08
2022-09-17T13:29:43.620Z,17.09
2022-09-17T13:32:37.687Z,17.19
2022-09-17T13:35:22.246Z,17.26
2022-09-17T13:38:04.143Z,17.24
2022-09-17T13:59:54.511Z,16.66
2022-09-17T14:02:37.014Z,16.38
2022-09-17T14:05:32.693Z,16.24
2022-09-17T14:08:28.729Z,16.18
2022-09-17T14:11:58.537Z,16.10
2022-09-17T14:19:41.696Z,16.07
2022-09-17T14:22:28.278Z,16.07
2022-09-17T14:25:19.323Z,16.09
2022-09-17T14:28:08.844Z,16.07
2022-09-17T14:30:51.399Z,16.04
2022-09-17T14:33:34.420Z,16.03
2022-09-17T14:36:20.406Z,16.05
2022-09-17T14:39:04.863Z,16.06
2022-09-17T14:41:47.274Z,16.06
2022-09-17T14:44:33.368Z,16.05
2022-09-17T14:47:19.895Z,16.07
2022-09-17T14:50:25.533Z,16.14
2022-09-17T14:53:21.493Z,16.27
